Airfield :
LOGIN :

Register | Disclaimer

   EN    FR    IT 

 










Legend :    VFR   Marginal VFR   IFR   Intensive IFR   Very Intensive IFR
Visi :
Ceiling :
>= 8 km
>= 3000ft
5 to 8 km
1000 to 3000 ft
1500m to 5 km
500 to 1000 ft
800 to 1500m
200 to 500 ft
< 800m
< 200 ft
Symbols :   Thunderstorms  Fog  Heavy snow  Heavy precipitations  Wind > 20 kt
SIGMETs :     Misc.  Thunderstorms  Icing  Turbulence  Mountain Waves  Volcanic Ashes







- Airport Elevation : 31 ft
- IATA code : INV
- Download approach charts


EGPE - Inverness

CURRENT METAR :
  • 240820Z 09005KT 9999 FEW032CB SCT040 19/18 Q1005

EXPIRED METARs :
  • 240750Z VRB02KT 9999 5000N -RA FEW030CB BKN040 18/17 Q1005 RERA
  • 240720Z VRB02KT 9999 -RA FEW030CB 19/18 Q1005 RETSRA
  • 240650Z VRB02KT 8000 -TSRA FEW030CB 19/18 Q1006
  • 240620Z VRB05KT 8000 -TSRA FEW030CB 19/17 Q1006
  • 240550Z 32004KT 250V050 9999 6000W -TSRA FEW032CB 16/16 Q1006

TAF TAF EGPE
Valid from the 24 at 09:00 until the 24 at 18:00 UTC


240802Z 2409/2418 21007KT 9999 FEW030
PROB30
TEMPO 2409/2415 6000 SHRA BKN010
ATIS : +44 1667 464 255
No reported NOTAMs for that airfield.
1 SIGMET reported for the Scottish FIR (EGPX) :
 
Embedded thunderstorms and hail
EGPX SIGMET 03 VALID 240610/241000 EGRR
EGPX SCOTTISH FIR EMBD TSGR FCST WI N5952 W00345 - N5745 E00019 - N5621 W00247 - N5837 W00636 - N5952 W00345 TOP FL380 MOV N 40KT NC=



MET'MAP, your aeronautical weather chart ! - Copyright ORBIFLY December 2007 - Disclaimer

ORBIFLY MET'MAP TEAM :

Programming & Development : Alexandra Zaïnal
Concept & Development : Baudouin d'Aumeries
Co-Development & Prog : Marc-Olivier Méhu
Technical & hardware support : Manuel Goepfert

Contact : metmap@orbifly.com




SOURCES & CREDITS :

   NOAA